createdAt,value
2022-08-05T00:01:48.813Z,98406.97
2022-08-05T00:04:17.950Z,98406.03
2022-08-05T00:06:47.268Z,98407.56
2022-08-05T00:09:20.994Z,98419.19
2022-08-05T00:11:55.810Z,98414.03
2022-08-05T00:14:31.399Z,98396.50
2022-08-05T00:17:01.997Z,98409.22
2022-08-05T00:19:33.831Z,98420.09
2022-08-05T00:22:13.732Z,98415.91
2022-08-05T00:24:47.388Z,98418.41
2022-08-05T00:27:28.504Z,98413.47
2022-08-05T00:30:04.222Z,98417.84
2022-08-05T00:32:32.247Z,98412.06
2022-08-05T00:35:07.619Z,98423.81
2022-08-05T00:37:52.580Z,98405.44
2022-08-05T00:40:27.815Z,98425.59
2022-08-05T00:42:58.897Z,98419.59
2022-08-05T00:45:37.885Z,98423.63
2022-08-05T00:48:08.284Z,98435.03
2022-08-05T00:50:38.004Z,98430.34
2022-08-05T00:53:09.761Z,98443.19
2022-08-05T00:55:55.550Z,98451.28
2022-08-05T00:58:27.155Z,98464.41
2022-08-05T01:00:55.950Z,98451.88
2022-08-05T01:03:24.346Z,98460.00
2022-08-05T01:06:01.592Z,98467.06
2022-08-05T01:08:43.094Z,98460.06
2022-08-05T01:11:22.550Z,98466.72
2022-08-05T01:14:15.319Z,98462.59
2022-08-05T01:16:50.365Z,98466.97
2022-08-05T01:20:01.881Z,98478.00
2022-08-05T01:22:36.595Z,98465.94
2022-08-05T01:25:40.425Z,98462.78
2022-08-05T01:28:28.577Z,98470.94
2022-08-05T01:31:03.181Z,98459.09
2022-08-05T01:33:36.100Z,98471.22
2022-08-05T01:36:12.856Z,98471.44
2022-08-05T01:38:48.332Z,98472.50
2022-08-05T01:41:21.011Z,98467.25
2022-08-05T01:43:52.638Z,98469.34
2022-08-05T01:46:42.529Z,98472.66
2022-08-05T01:49:23.840Z,98469.91
2022-08-05T01:51:56.514Z,98478.25
2022-08-05T01:54:30.421Z,98482.00
2022-08-05T01:58:10.129Z,98464.25
2022-08-05T01:59:52.759Z,98465.53
2022-08-05T02:02:28.475Z,98474.50
2022-08-05T02:05:00.256Z,98466.19
2022-08-05T02:07:30.481Z,98463.06
2022-08-05T02:09:59.047Z,98460.75
2022-08-05T02:12:35.885Z,98447.78
2022-08-05T02:15:12.136Z,98447.38
2022-08-05T02:18:31.484Z,98450.31
2022-08-05T02:20:46.906Z,98440.09
2022-08-05T02:23:16.166Z,98443.59
2022-08-05T02:25:49.811Z,98432.75
2022-08-05T02:28:29.202Z,98442.97
2022-08-05T02:31:07.643Z,98418.75
2022-08-05T02:33:48.729Z,98428.59
2022-08-05T02:36:27.449Z,98422.75
2022-08-05T02:38:58.132Z,98427.56
2022-08-05T02:41:36.261Z,98424.81
2022-08-05T02:44:18.182Z,98429.38
2022-08-05T02:46:58.672Z,98425.19
2022-08-05T02:49:35.762Z,98432.91
2022-08-05T02:52:06.078Z,98439.16
2022-08-05T02:54:37.260Z,98446.50
2022-08-05T02:57:10.240Z,98450.31
2022-08-05T02:59:56.362Z,98446.78
2022-08-05T03:02:29.983Z,98453.63
2022-08-05T03:05:00.198Z,98458.31
2022-08-05T03:08:00.911Z,98461.66
2022-08-05T03:10:24.687Z,98443.00
2022-08-05T03:12:54.993Z,98460.53
2022-08-05T03:15:24.363Z,98446.38
2022-08-05T03:17:57.442Z,98466.03
2022-08-05T03:20:26.486Z,98467.28
2022-08-05T03:22:57.693Z,98462.50
2022-08-05T03:25:32.402Z,98451.41
2022-08-05T03:28:18.780Z,98464.78
2022-08-05T03:30:49.699Z,98454.78
2022-08-05T03:33:20.635Z,98458.72
2022-08-05T03:35:51.689Z,98453.53
2022-08-05T03:38:32.958Z,98453.69
2022-08-05T03:41:08.216Z,98450.34
2022-08-05T03:44:08.815Z,98435.78
2022-08-05T03:46:29.543Z,98450.81
2022-08-05T03:48:59.816Z,98441.81
2022-08-05T03:52:37.710Z,98445.19
2022-08-05T03:55:07.010Z,98444.53
2022-08-05T03:57:41.571Z,98443.03
2022-08-05T04:00:15.653Z,98448.47
2022-08-05T04:02:58.311Z,98458.81
2022-08-05T04:05:33.590Z,98460.06
2022-08-05T04:08:03.626Z,98450.34
2022-08-05T04:10:38.152Z,98461.25
2022-08-05T04:13:09.034Z,98462.63
2022-08-05T04:15:37.417Z,98465.38
2022-08-05T04:18:09.349Z,98471.47
2022-08-05T04:20:41.310Z,98486.13
2022-08-05T04:23:12.446Z,98496.44
2022-08-05T04:26:00.589Z,98504.59
2022-08-05T04:28:30.946Z,98526.72
2022-08-05T04:31:00.877Z,98537.16
2022-08-05T04:33:54.752Z,98538.56
2022-08-05T04:36:45.986Z,98572.09
2022-08-05T04:39:07.532Z,98579.88
2022-08-05T04:41:36.859Z,98593.81
2022-08-05T04:44:08.833Z,98584.88
2022-08-05T04:46:38.195Z,98591.34
2022-08-05T04:49:14.496Z,98604.16
2022-08-05T04:51:44.650Z,98609.34
2022-08-05T04:54:14.824Z,98618.03
2022-08-05T04:56:43.517Z,98620.47
2022-08-05T04:59:13.957Z,98622.34
2022-08-05T05:02:07.590Z,98644.28
2022-08-05T05:04:47.550Z,98648.06
2022-08-05T05:07:23.847Z,98655.59
2022-08-05T05:09:57.359Z,98654.56
2022-08-05T05:12:27.182Z,98652.09
2022-08-05T05:14:55.767Z,98657.53
2022-08-05T05:17:55.391Z,98656.97
2022-08-05T05:20:13.803Z,98658.84
2022-08-05T05:22:44.095Z,98665.94
2022-08-05T05:25:16.504Z,98663.25
2022-08-05T05:27:53.506Z,98668.91
2022-08-05T05:30:31.340Z,98663.06
2022-08-05T05:33:09.106Z,98661.84
2022-08-05T05:35:45.015Z,98680.22
2022-08-05T05:38:14.511Z,98692.31
2022-08-05T05:40:50.068Z,98691.06
2022-08-05T05:43:27.497Z,98682.56
2022-08-05T05:46:12.207Z,98682.13
2022-08-05T05:48:44.286Z,98678.78
2022-08-05T05:51:14.892Z,98668.13
2022-08-05T05:53:46.000Z,98663.75
2022-08-05T05:56:32.386Z,98655.16
2022-08-05T05:59:03.137Z,98656.63
2022-08-05T06:01:37.760Z,98645.13
2022-08-05T06:04:08.169Z,98662.19
2022-08-05T06:06:36.855Z,98664.13
2022-08-05T06:09:18.542Z,98674.47
2022-08-05T06:11:59.308Z,98683.78
2022-08-05T06:14:29.646Z,98675.47
2022-08-05T06:16:58.142Z,98672.16
2022-08-05T06:19:34.773Z,98674.50
2022-08-05T06:22:03.796Z,98678.84
2022-08-05T06:24:33.367Z,98665.75
2022-08-05T06:27:04.037Z,98673.16
2022-08-05T06:29:49.610Z,98663.50
2022-08-05T06:32:26.282Z,98687.31
2022-08-05T06:34:58.696Z,98691.75
2022-08-05T06:37:58.403Z,98653.34
2022-08-05T06:40:18.184Z,98698.91
2022-08-05T06:42:51.652Z,98718.63
2022-08-05T06:45:21.165Z,98718.03
2022-08-05T06:48:35.939Z,98740.28
2022-08-05T06:50:40.695Z,98740.91
2022-08-05T06:53:19.569Z,98742.53
2022-08-05T06:55:54.679Z,98749.28
2022-08-05T06:58:29.972Z,98744.47
2022-08-05T07:01:05.433Z,98730.88
2022-08-05T07:03:33.933Z,98733.53
2022-08-05T07:06:06.045Z,98732.69
2022-08-05T07:08:43.167Z,98738.47
2022-08-05T07:11:22.160Z,98744.38
2022-08-05T07:14:19.947Z,98733.97
2022-08-05T07:18:02.123Z,98743.41
2022-08-05T07:22:47.810Z,98739.38
2022-08-05T07:25:53.930Z,98738.72
2022-08-05T07:28:11.815Z,98740.25
2022-08-05T07:30:50.415Z,98739.69
2022-08-05T07:33:36.762Z,98737.13
2022-08-05T07:36:21.536Z,98742.72
2022-08-05T07:38:54.956Z,98732.78
2022-08-05T07:42:07.744Z,98744.66
2022-08-05T07:44:19.003Z,98741.13
2022-08-05T07:46:49.263Z,98718.91
2022-08-05T07:49:20.970Z,98720.00
2022-08-05T07:54:51.317Z,98706.22
2022-08-05T07:58:02.988Z,98699.50
2022-08-05T08:00:36.310Z,98694.59
2022-08-05T08:03:14.822Z,98703.19
2022-08-05T08:05:49.802Z,98723.31
2022-08-05T08:08:21.749Z,98694.72
2022-08-05T08:10:56.242Z,98692.38
2022-08-05T08:13:29.104Z,98701.03
2022-08-05T08:16:50.038Z,98717.53
2022-08-05T08:18:49.893Z,98695.72
2022-08-05T08:21:18.791Z,98705.22
2022-08-05T08:24:02.013Z,98688.94
2022-08-05T08:26:32.817Z,98691.81
2022-08-05T08:29:09.793Z,98696.44
2022-08-05T08:31:52.275Z,98681.22
2022-08-05T08:34:30.790Z,98670.84
2022-08-05T08:37:04.806Z,98665.78
2022-08-05T08:39:37.858Z,98660.25
2022-08-05T08:42:32.405Z,98663.69
2022-08-05T08:45:25.408Z,98671.13
2022-08-05T08:48:12.621Z,98664.09
2022-08-05T08:51:03.525Z,98657.38
2022-08-05T08:53:30.673Z,98643.72
2022-08-05T08:56:05.071Z,98643.13
2022-08-05T08:58:44.509Z,98635.66
2022-08-05T09:01:18.078Z,98636.47
2022-08-05T09:03:55.312Z,98635.25
2022-08-05T09:06:29.992Z,98636.28
2022-08-05T09:09:00.382Z,98638.06
2022-08-05T09:11:50.723Z,98636.59
2022-08-05T09:14:58.530Z,98624.31
2022-08-05T09:17:09.530Z,98623.06
2022-08-05T09:20:01.561Z,98624.28
2022-08-05T09:23:09.292Z,98614.31
2022-08-05T09:26:01.503Z,98616.13
2022-08-05T09:28:32.257Z,98617.66
2022-08-05T09:32:38.713Z,98622.31
2022-08-05T09:33:58.718Z,98631.06
2022-08-05T09:36:54.067Z,98619.72
2022-08-05T09:39:42.030Z,98619.16
2022-08-05T09:42:17.348Z,98616.84
2022-08-05T09:44:56.013Z,98607.97
2022-08-05T09:47:35.201Z,98611.38
2022-08-05T09:50:17.783Z,98601.13
2022-08-05T09:53:02.213Z,98585.09
2022-08-05T09:55:57.946Z,98608.38
2022-08-05T09:58:25.727Z,98605.84
2022-08-05T10:01:00.952Z,98609.97
2022-08-05T10:03:38.735Z,98619.16
2022-08-05T10:06:24.084Z,98603.97
2022-08-05T10:08:56.164Z,98623.31
2022-08-05T10:11:31.420Z,98612.25
2022-08-05T10:14:22.398Z,98614.94
2022-08-05T10:16:52.972Z,98609.59
2022-08-05T10:19:23.572Z,98606.22
2022-08-05T10:22:00.912Z,98614.28
2022-08-05T10:24:34.374Z,98591.63
2022-08-05T10:27:08.323Z,98609.84
2022-08-05T10:30:06.951Z,98619.06
2022-08-05T10:32:52.513Z,98610.16
2022-08-05T10:35:14.259Z,98620.63
2022-08-05T10:37:44.686Z,98617.59
2022-08-05T10:40:28.101Z,98621.38
2022-08-05T10:42:59.964Z,98615.00
2022-08-05T10:45:40.090Z,98616.47
2022-08-05T10:48:38.446Z,98604.06
2022-08-05T10:51:28.329Z,98609.19
2022-08-05T10:54:01.769Z,98594.00
2022-08-05T10:56:46.766Z,98604.31
2022-08-05T11:00:03.195Z,98604.88
2022-08-05T11:02:14.469Z,98600.19
2022-08-05T11:04:57.678Z,98604.06
2022-08-05T11:07:32.982Z,98592.94
2022-08-05T11:10:30.018Z,98587.53
2022-08-05T11:13:01.709Z,98596.63
2022-08-05T11:16:00.851Z,98601.28
2022-08-05T11:18:32.338Z,98611.50
2022-08-05T11:21:11.290Z,98610.06
2022-08-05T11:24:05.536Z,98599.41
2022-08-05T11:26:35.087Z,98606.19
2022-08-05T11:29:13.775Z,98610.47
2022-08-05T11:31:56.417Z,98599.69
2022-08-05T11:34:50.781Z,98601.25
2022-08-05T11:38:26.641Z,98611.06
2022-08-05T11:41:34.545Z,98605.69
2022-08-05T11:44:04.841Z,98607.09
2022-08-05T11:46:58.205Z,98604.69
2022-08-05T11:49:27.578Z,98607.31
2022-08-05T11:51:57.419Z,98610.47
2022-08-05T11:54:33.988Z,98601.44
2022-08-05T11:57:08.095Z,98608.50
2022-08-05T11:59:52.995Z,98600.88
2022-08-05T12:02:31.380Z,98604.00
2022-08-05T12:05:07.438Z,98585.38
2022-08-05T12:08:09.559Z,98598.13
2022-08-05T12:10:38.530Z,98599.94
2022-08-05T12:13:16.684Z,98594.63
2022-08-05T12:15:49.938Z,98548.38
2022-08-05T12:18:32.955Z,98594.16
2022-08-05T12:21:11.482Z,98580.63
2022-08-05T12:23:43.166Z,98583.94
2022-08-05T12:26:11.578Z,98590.31
2022-08-05T12:28:39.730Z,98584.47
2022-08-05T12:31:07.804Z,98578.34
2022-08-05T12:33:38.798Z,98585.88
2022-08-05T12:36:08.983Z,98591.94
2022-08-05T12:38:39.579Z,98591.38
2022-08-05T12:41:13.499Z,98596.38
2022-08-05T12:43:56.687Z,98593.31
2022-08-05T12:46:29.220Z,98594.16
2022-08-05T12:49:05.870Z,98586.44
2022-08-05T12:52:10.643Z,98585.78
2022-08-05T12:54:37.399Z,98576.41
2022-08-05T12:57:09.607Z,98586.00
2022-08-05T13:01:58.539Z,98576.19
2022-08-05T13:02:39.806Z,98549.13
2022-08-05T13:05:12.668Z,98563.19
2022-08-05T13:08:01.013Z,98557.97
2022-08-05T13:10:33.284Z,98556.31
2022-08-05T13:13:02.755Z,98559.16
2022-08-05T13:15:41.183Z,98539.03
2022-08-05T13:18:19.383Z,98541.16
2022-08-05T13:20:50.337Z,98541.41
2022-08-05T13:23:22.876Z,98532.38
2022-08-05T13:25:59.567Z,98533.09
2022-08-05T13:28:32.395Z,98536.13
2022-08-05T13:31:11.235Z,98536.88
2022-08-05T13:34:22.728Z,98545.19
2022-08-05T13:36:34.522Z,98534.28
2022-08-05T13:39:02.741Z,98534.22
2022-08-05T13:41:50.868Z,98534.50
2022-08-05T13:44:19.249Z,98533.53
2022-08-05T13:47:02.468Z,98516.13
2022-08-05T13:49:35.420Z,98525.75
2022-08-05T13:52:13.509Z,98532.38
2022-08-05T13:54:42.354Z,98523.81
2022-08-05T13:57:23.160Z,98517.72
2022-08-05T13:59:59.359Z,98519.69
2022-08-05T14:02:31.374Z,98523.16
2022-08-05T14:05:29.528Z,98526.19
2022-08-05T14:08:11.382Z,98534.00
2022-08-05T14:10:51.393Z,98517.34
2022-08-05T14:13:23.524Z,98540.53
2022-08-05T14:16:04.489Z,98516.41
2022-08-05T14:18:34.957Z,98525.75
2022-08-05T14:22:07.203Z,98511.66
2022-08-05T14:23:57.813Z,98527.06
2022-08-05T14:26:37.067Z,98530.34
2022-08-05T14:29:16.290Z,98528.31
2022-08-05T14:32:02.600Z,98533.91
2022-08-05T14:34:37.054Z,98528.66
2022-08-05T14:37:09.248Z,98520.44
2022-08-05T14:39:57.039Z,98516.63
2022-08-05T14:42:34.356Z,98533.19
2022-08-05T14:45:07.648Z,98528.47
2022-08-05T14:48:04.205Z,98527.78
2022-08-05T14:50:27.414Z,98524.97
2022-08-05T14:52:59.113Z,98516.25
2022-08-05T14:55:38.689Z,98491.69
2022-08-05T14:58:11.157Z,98490.63
2022-08-05T15:00:59.638Z,98463.28
2022-08-05T15:03:34.000Z,98523.25
2022-08-05T15:06:15.420Z,98528.69
2022-08-05T15:08:59.752Z,98537.06
2022-08-05T15:11:52.325Z,98502.03
2022-08-05T15:14:34.447Z,98548.94
2022-08-05T15:17:09.801Z,98497.97
2022-08-05T15:19:55.160Z,98547.56
2022-08-05T15:22:27.411Z,98560.69
2022-08-05T15:24:56.819Z,98524.50
2022-08-05T15:27:26.638Z,98555.94
2022-08-05T15:30:05.076Z,98564.59
2022-08-05T15:32:33.357Z,98576.19
2022-08-05T15:35:04.129Z,98575.97
2022-08-05T15:38:35.003Z,98590.03
2022-08-05T15:40:58.761Z,98584.53
2022-08-05T15:43:20.518Z,98604.19
2022-08-05T15:46:00.806Z,98605.22
2022-08-05T15:48:30.079Z,98605.97
2022-08-05T15:51:03.307Z,98601.81
2022-08-05T15:53:37.809Z,98595.47
2022-08-05T15:56:13.153Z,98607.38
2022-08-05T15:58:43.868Z,98619.56
2022-08-05T16:01:17.407Z,98629.66
2022-08-05T16:03:48.519Z,98645.00
2022-08-05T16:06:20.231Z,98630.97
2022-08-05T16:08:51.294Z,98642.34
2022-08-05T16:11:42.560Z,98647.28
2022-08-05T16:14:17.159Z,98671.09
2022-08-05T16:16:46.656Z,98656.41
2022-08-05T16:19:25.569Z,98658.69
2022-08-05T16:22:03.674Z,98668.34
2022-08-05T16:24:39.777Z,98657.84
2022-08-05T16:27:10.300Z,98675.66
2022-08-05T16:29:50.837Z,98605.34
2022-08-05T16:32:28.537Z,98673.78
2022-08-05T16:34:57.586Z,98631.81
2022-08-05T16:38:15.000Z,98659.34
2022-08-05T16:40:26.709Z,98651.63
2022-08-05T16:42:57.640Z,98684.56
2022-08-05T16:46:02.802Z,98685.97
2022-08-05T16:48:25.200Z,98696.56
2022-08-05T16:50:57.022Z,98697.69
2022-08-05T16:53:32.018Z,98705.53
2022-08-05T16:56:04.832Z,98696.28
2022-08-05T16:58:42.086Z,98674.41
2022-08-05T17:01:18.902Z,98697.81
2022-08-05T17:03:49.155Z,98701.31
2022-08-05T17:06:17.859Z,98709.63
2022-08-05T17:08:52.763Z,98708.38
2022-08-05T17:11:25.995Z,98710.31
2022-08-05T17:14:05.222Z,98712.91
2022-08-05T17:16:40.787Z,98686.53
2022-08-05T17:19:10.915Z,98696.50
2022-08-05T17:21:51.591Z,98720.91
2022-08-05T17:24:36.557Z,98713.75
2022-08-05T17:27:09.252Z,98725.88
2022-08-05T17:29:41.774Z,98739.53
2022-08-05T17:32:17.276Z,98722.47
2022-08-05T17:34:48.090Z,98737.50
2022-08-05T17:37:39.755Z,98738.72
2022-08-05T17:40:12.910Z,98740.91
2022-08-05T17:42:51.042Z,98737.47
2022-08-05T17:45:22.241Z,98728.97
2022-08-05T17:47:59.832Z,98740.94
2022-08-05T17:50:30.998Z,98742.59
2022-08-05T17:53:13.034Z,98748.41
2022-08-05T17:55:44.181Z,98753.78
2022-08-05T17:58:16.380Z,98755.16
2022-08-05T18:00:51.724Z,98755.88
2022-08-05T18:03:56.435Z,98761.94
2022-08-05T18:06:16.330Z,98770.53
2022-08-05T18:08:52.351Z,98759.44
2022-08-05T18:11:24.759Z,98780.34
2022-08-05T18:14:13.190Z,98784.16
2022-08-05T18:16:51.848Z,98792.25
2022-08-05T18:19:26.061Z,98798.97
2022-08-05T18:22:09.777Z,98804.31
2022-08-05T18:24:40.267Z,98821.19
2022-08-05T18:27:18.094Z,98830.34
2022-08-05T18:29:51.959Z,98832.25
2022-08-05T18:32:28.214Z,98833.78
2022-08-05T18:34:59.546Z,98847.25
2022-08-05T18:37:34.209Z,98858.13
2022-08-05T18:41:50.554Z,98861.72
2022-08-05T18:42:57.930Z,98868.91
2022-08-05T18:45:41.311Z,98872.84
2022-08-05T18:48:11.350Z,98873.47
2022-08-05T18:51:01.659Z,98868.69
2022-08-05T18:53:50.520Z,98877.28
2022-08-05T18:56:21.879Z,98880.44
2022-08-05T18:58:54.906Z,98873.91
2022-08-05T19:01:33.596Z,98872.16
2022-08-05T19:04:24.092Z,98883.34
2022-08-05T19:06:53.988Z,98885.84
2022-08-05T19:09:22.503Z,98892.38
2022-08-05T19:11:59.194Z,98889.88
2022-08-05T19:14:37.807Z,98887.78
2022-08-05T19:17:18.244Z,98894.69
2022-08-05T19:19:48.524Z,98910.41
2022-08-05T19:22:18.786Z,98916.69
2022-08-05T19:24:54.185Z,98917.28
2022-08-05T19:27:24.352Z,98920.84
2022-08-05T19:29:58.389Z,98914.78
2022-08-05T19:32:27.918Z,98918.13
2022-08-05T19:34:56.491Z,98918.13
2022-08-05T19:37:29.997Z,98934.28
2022-08-05T19:40:15.857Z,98938.63
2022-08-05T19:43:04.927Z,98931.53
2022-08-05T19:45:36.442Z,98952.06
2022-08-05T19:48:05.998Z,98960.84
2022-08-05T19:50:35.074Z,98960.66
2022-08-05T19:53:10.404Z,98956.88
2022-08-05T19:56:14.803Z,98963.56
2022-08-05T19:58:30.104Z,98955.84
2022-08-05T20:00:58.370Z,98970.91
2022-08-05T20:03:27.466Z,98985.78
2022-08-05T20:06:15.767Z,98999.56
2022-08-05T20:08:52.821Z,99011.09
2022-08-05T20:11:22.691Z,99000.00
2022-08-05T20:13:58.318Z,99012.78
2022-08-05T20:16:39.045Z,99016.75
2022-08-05T20:19:07.338Z,99015.72
2022-08-05T20:21:35.447Z,99014.03
2022-08-05T20:24:11.606Z,99018.81
2022-08-05T20:26:39.745Z,98993.28
2022-08-05T20:29:26.880Z,99018.19
2022-08-05T20:31:58.283Z,99020.28
2022-08-05T20:34:27.739Z,99027.56
2022-08-05T20:36:55.745Z,99028.25
2022-08-05T20:39:25.152Z,99027.38
2022-08-05T20:42:03.780Z,99021.28
2022-08-05T20:44:32.876Z,99024.84
2022-08-05T20:47:07.475Z,99024.38
2022-08-05T20:49:39.441Z,99031.28
2022-08-05T20:52:08.683Z,99028.84
2022-08-05T20:54:55.065Z,99041.69
2022-08-05T20:57:43.378Z,99030.31
2022-08-05T21:00:41.068Z,99046.34
2022-08-05T21:03:06.269Z,99047.28
2022-08-05T21:05:47.917Z,99051.25
2022-08-05T21:08:33.019Z,99041.22
2022-08-05T21:11:12.730Z,99072.19
2022-08-05T21:13:55.863Z,99075.88
2022-08-05T21:16:29.877Z,99075.03
2022-08-05T21:19:00.396Z,99083.16
2022-08-05T21:21:43.956Z,99072.78
2022-08-05T21:24:19.703Z,99073.97
2022-08-05T21:26:57.844Z,99071.59
2022-08-05T21:29:32.024Z,99083.19
2022-08-05T21:32:01.404Z,99083.94
2022-08-05T21:34:31.621Z,99076.34
2022-08-05T21:37:01.134Z,99088.91
2022-08-05T21:39:29.875Z,99086.06
2022-08-05T21:42:01.163Z,99095.63
2022-08-05T21:44:30.330Z,99090.22
2022-08-05T21:46:59.205Z,99110.19
2022-08-05T21:49:58.545Z,99112.13
2022-08-05T21:52:26.935Z,99111.94
2022-08-05T21:54:56.745Z,99123.44
2022-08-05T21:57:33.280Z,99129.81
2022-08-05T22:00:06.387Z,99134.69
2022-08-05T22:02:35.188Z,99133.53
2022-08-05T22:05:04.478Z,99129.78
2022-08-05T22:07:40.452Z,99133.22
2022-08-05T22:10:27.080Z,99144.25
2022-08-05T22:12:58.712Z,99142.94
2022-08-05T22:16:00.750Z,99144.53
2022-08-05T22:18:16.016Z,99128.88
2022-08-05T22:20:47.661Z,99160.81
2022-08-05T22:24:02.180Z,99163.38
2022-08-05T22:26:42.708Z,99171.78
2022-08-05T22:29:26.823Z,99166.25
2022-08-05T22:31:59.348Z,99163.69
2022-08-05T22:34:28.932Z,99164.34
2022-08-05T22:36:58.823Z,99172.53
2022-08-05T22:39:32.578Z,99167.16
2022-08-05T22:42:11.717Z,99173.63
2022-08-05T22:44:48.228Z,99179.22
2022-08-05T22:47:29.555Z,99163.81
2022-08-05T22:50:18.410Z,99170.44
2022-08-05T22:52:48.263Z,99184.56
2022-08-05T22:55:19.287Z,99184.38
2022-08-05T22:57:49.020Z,99184.84
2022-08-05T23:00:20.876Z,99188.16
2022-08-05T23:02:50.138Z,99165.09
2022-08-05T23:05:18.847Z,99182.94
2022-08-05T23:07:50.500Z,99181.66
2022-08-05T23:10:20.635Z,99163.69
2022-08-05T23:12:51.481Z,99181.50
2022-08-05T23:15:26.956Z,99168.06
2022-08-05T23:18:01.210Z,99176.63
2022-08-05T23:20:32.109Z,99169.66
2022-08-05T23:23:03.481Z,99168.63
2022-08-05T23:25:51.216Z,99167.50
2022-08-05T23:28:22.652Z,99155.47
2022-08-05T23:30:54.695Z,99156.31
2022-08-05T23:33:26.283Z,99162.25
2022-08-05T23:36:13.575Z,99161.22
2022-08-05T23:38:42.862Z,99145.25
2022-08-05T23:41:11.770Z,99162.97
2022-08-05T23:44:04.524Z,99174.19
2022-08-05T23:46:29.763Z,99158.56
2022-08-05T23:49:01.023Z,99171.22
2022-08-05T23:51:55.151Z,99170.66
2022-08-05T23:54:25.622Z,99159.47
2022-08-05T23:56:55.489Z,99184.13
2022-08-05T23:59:27.833Z,99158.50
